createdAt,value
2023-06-24T00:04:22.856Z,102306.59
2023-06-24T00:09:28.560Z,102308.78
2023-06-24T00:14:33.917Z,102312.91
2023-06-24T00:19:38.468Z,102316.91
2023-06-24T00:24:44.126Z,102311.44
2023-06-24T00:29:49.738Z,102312.09
2023-06-24T00:34:54.377Z,102318.56
2023-06-24T00:39:58.562Z,102325.19
2023-06-24T00:45:05.718Z,102327.34
2023-06-24T00:50:13.239Z,102320.91
2023-06-24T00:55:21.508Z,102332.28
2023-06-24T01:00:27.670Z,102333.28
2023-06-24T01:05:36.743Z,102329.31
2023-06-24T01:10:41.009Z,102322.16
2023-06-24T01:15:46.983Z,102314.94
2023-06-24T01:20:58.516Z,102310.63
2023-06-24T01:26:31.169Z,102309.97
2023-06-24T01:31:47.338Z,102313.91
2023-06-24T01:37:00.873Z,102305.31
2023-06-24T01:42:10.726Z,102306.31
2023-06-24T01:47:18.770Z,102295.75
2023-06-24T01:52:25.218Z,102303.81
2023-06-24T01:57:31.187Z,102296.06
2023-06-24T02:02:38.150Z,102308.59
2023-06-24T02:07:44.350Z,102286.16
2023-06-24T02:12:53.166Z,102287.81
2023-06-24T02:17:59.688Z,102293.03
2023-06-24T02:23:10.610Z,102289.41
2023-06-24T02:28:16.851Z,102285.09
2023-06-24T02:33:22.583Z,102282.78
2023-06-24T02:38:28.825Z,102292.31
2023-06-24T02:43:33.124Z,102285.72
2023-06-24T02:48:41.462Z,102292.84
2023-06-24T02:53:47.871Z,102301.69
2023-06-24T02:58:55.299Z,102305.81
2023-06-24T03:04:05.437Z,102302.00
2023-06-24T03:09:10.421Z,102294.91
2023-06-24T03:14:15.237Z,102303.78
2023-06-24T03:19:22.814Z,102310.03
2023-06-24T03:24:27.829Z,102306.06
2023-06-24T03:29:31.972Z,102308.50
2023-06-24T03:34:45.183Z,102301.22
2023-06-24T03:39:49.686Z,102303.69
2023-06-24T03:44:54.012Z,102305.38
2023-06-24T03:49:59.536Z,102305.81
2023-06-24T03:55:06.117Z,102307.63
2023-06-24T04:00:16.677Z,102304.16
2023-06-24T04:05:25.894Z,102301.91
2023-06-24T04:10:29.975Z,102310.47
2023-06-24T04:15:34.360Z,102316.06
2023-06-24T04:20:40.129Z,102315.38
2023-06-24T04:25:44.439Z,102318.16
2023-06-24T04:30:48.549Z,102317.19
2023-06-24T04:35:57.628Z,102310.41
2023-06-24T04:41:02.422Z,102315.03
2023-06-24T04:46:06.454Z,102321.59
2023-06-24T04:51:12.057Z,102319.13
2023-06-24T04:56:16.138Z,102311.06
2023-06-24T05:01:20.564Z,102329.66
2023-06-24T05:06:26.098Z,102325.50
2023-06-24T05:11:30.155Z,102323.69
2023-06-24T05:16:34.239Z,102325.78
2023-06-24T05:21:39.721Z,102326.50
2023-06-24T05:26:43.758Z,102324.88
2023-06-24T05:31:47.993Z,102315.31
2023-06-24T05:36:53.460Z,102321.75
2023-06-24T05:41:57.581Z,102323.91
2023-06-24T05:47:01.600Z,102330.84
2023-06-24T05:52:08.793Z,102322.94
2023-06-24T05:57:13.499Z,102326.22
2023-06-24T06:02:18.054Z,102326.06
2023-06-24T06:07:23.520Z,102334.81
2023-06-24T06:12:27.861Z,102339.09
2023-06-24T06:17:31.897Z,102331.56
2023-06-24T06:22:38.898Z,102342.25
2023-06-24T06:27:43.087Z,102341.94
2023-06-24T06:32:47.166Z,102349.94
2023-06-24T06:37:56.671Z,102349.94
2023-06-24T06:43:01.115Z,102347.34
2023-06-24T06:48:08.351Z,102348.16
2023-06-24T06:53:14.097Z,102352.66
2023-06-24T06:58:18.302Z,102359.78
2023-06-24T07:03:22.743Z,102352.22
2023-06-24T07:08:28.215Z,102361.31
2023-06-24T07:13:32.360Z,102366.47
2023-06-24T07:18:36.437Z,102355.63
2023-06-24T07:23:42.886Z,102353.53
2023-06-24T07:28:53.858Z,102358.69
2023-06-24T07:34:08.166Z,102365.97
2023-06-24T07:39:13.638Z,102360.72
2023-06-24T07:44:17.674Z,102357.63
2023-06-24T07:49:21.728Z,102363.44
2023-06-24T07:54:27.200Z,102357.66
2023-06-24T07:59:31.173Z,102361.19
2023-06-24T08:04:35.407Z,102352.09
2023-06-24T08:09:40.937Z,102353.25
2023-06-24T08:14:44.979Z,102348.63
2023-06-24T08:19:49.041Z,102352.41
2023-06-24T08:24:54.509Z,102340.97
2023-06-24T08:29:58.629Z,102335.50
2023-06-24T08:35:02.697Z,102336.66
2023-06-24T08:40:09.960Z,102338.31
2023-06-24T08:45:13.995Z,102330.66
2023-06-24T08:50:20.775Z,102322.97
2023-06-24T08:55:28.872Z,102327.72
2023-06-24T09:00:33.149Z,102316.63
2023-06-24T09:05:37.355Z,102318.81
2023-06-24T09:10:43.060Z,102324.69
2023-06-24T09:15:47.122Z,102311.50
2023-06-24T09:20:51.179Z,102312.25
2023-06-24T09:26:00.196Z,102312.22
2023-06-24T09:31:18.932Z,102300.94
2023-06-24T09:36:24.348Z,102290.91
2023-06-24T09:41:30.546Z,102286.16
2023-06-24T09:46:36.207Z,102294.50
2023-06-24T09:51:42.369Z,102283.44
2023-06-24T09:56:51.311Z,102288.31
2023-06-24T10:01:56.310Z,102287.53
2023-06-24T10:07:01.616Z,102280.09
2023-06-24T10:12:08.589Z,102279.63
2023-06-24T10:17:14.832Z,102276.66
2023-06-24T10:22:19.068Z,102276.22
2023-06-24T10:27:27.982Z,102269.16
2023-06-24T10:32:43.949Z,102269.31
2023-06-24T10:37:58.026Z,102262.50
2023-06-24T10:43:03.569Z,102259.72
2023-06-24T10:48:07.998Z,102251.63
2023-06-24T10:53:12.257Z,102248.47
2023-06-24T10:58:17.928Z,102245.88
2023-06-24T11:03:23.112Z,102245.94
2023-06-24T11:08:27.160Z,102240.50
2023-06-24T11:13:35.704Z,102230.72
2023-06-24T11:18:40.701Z,102233.25
2023-06-24T11:23:44.748Z,102215.69
2023-06-24T11:28:51.710Z,102220.03
2023-06-24T11:33:55.882Z,102219.25
2023-06-24T11:39:00.221Z,102213.19
2023-06-24T11:44:07.663Z,102203.63
2023-06-24T11:49:12.023Z,102197.34
2023-06-24T11:54:20.670Z,102194.88
2023-06-24T11:59:29.252Z,102191.44
2023-06-24T12:04:35.007Z,102192.28
2023-06-24T12:09:40.876Z,102183.28
2023-06-24T12:14:46.360Z,102190.13
2023-06-24T12:19:50.404Z,102184.38
2023-06-24T12:24:54.383Z,102177.66
2023-06-24T12:29:59.867Z,102162.09
2023-06-24T12:35:04.497Z,102167.84
2023-06-24T12:40:10.033Z,102148.19
2023-06-24T12:45:15.796Z,102142.91
2023-06-24T12:50:19.890Z,102139.41
2023-06-24T12:55:24.051Z,102146.19
2023-06-24T13:00:29.551Z,102135.13
2023-06-24T13:05:33.652Z,102128.81
2023-06-24T13:10:37.878Z,102130.25
2023-06-24T13:15:44.527Z,102129.63
2023-06-24T13:20:48.625Z,102138.00
2023-06-24T13:25:52.756Z,102129.00
2023-06-24T13:30:58.237Z,102120.63
2023-06-24T13:36:03.744Z,102131.88
2023-06-24T13:41:07.824Z,102116.09
2023-06-24T13:46:13.544Z,102124.47
2023-06-24T13:51:17.934Z,102120.38
2023-06-24T13:56:22.912Z,102110.94
2023-06-24T14:01:29.675Z,102110.56
2023-06-24T14:06:33.864Z,102106.63
2023-06-24T14:11:38.141Z,102100.69
2023-06-24T14:16:43.575Z,102092.50
2023-06-24T14:21:47.880Z,102079.19
2023-06-24T14:26:52.174Z,102086.16
2023-06-24T14:31:57.745Z,102081.03
2023-06-24T14:37:01.844Z,102067.94
2023-06-24T14:42:09.189Z,102065.84
2023-06-24T14:47:14.972Z,102070.59
2023-06-24T14:52:19.126Z,102063.00
2023-06-24T14:57:24.550Z,102062.19
2023-06-24T15:02:30.084Z,102058.72
2023-06-24T15:07:34.284Z,102058.50
2023-06-24T15:12:41.698Z,102052.34
2023-06-24T15:17:47.178Z,102051.53
2023-06-24T15:22:51.262Z,102050.72
2023-06-24T15:27:55.391Z,102041.88
2023-06-24T15:33:00.890Z,102038.00
2023-06-24T15:38:04.959Z,102035.56
2023-06-24T15:43:10.575Z,102031.88
2023-06-24T15:48:16.456Z,102031.06
2023-06-24T15:53:20.516Z,102023.09
2023-06-24T15:58:24.657Z,102023.88
2023-06-24T16:03:30.136Z,102011.00
2023-06-24T16:08:34.268Z,102011.41
2023-06-24T16:13:38.442Z,101999.91
2023-06-24T16:18:43.866Z,101998.03
2023-06-24T16:23:48.635Z,101996.84
2023-06-24T16:28:52.759Z,101983.97
2023-06-24T16:33:58.943Z,101979.88
2023-06-24T16:39:03.005Z,101977.19
2023-06-24T16:44:07.364Z,101986.19
2023-06-24T16:49:12.829Z,101986.00
2023-06-24T16:54:17.909Z,101983.31
2023-06-24T16:59:22.009Z,101989.50
2023-06-24T17:04:27.422Z,101979.88
2023-06-24T17:09:31.738Z,101978.00
2023-06-24T17:14:36.017Z,101975.34
2023-06-24T17:19:42.307Z,101977.41
2023-06-24T17:24:46.129Z,101971.25
2023-06-24T17:29:50.583Z,101974.53
2023-06-24T17:34:56.324Z,101974.97
2023-06-24T17:40:00.491Z,101961.88
2023-06-24T17:45:05.010Z,101966.97
2023-06-24T17:50:11.180Z,101966.16
2023-06-24T17:55:15.193Z,101971.72
2023-06-24T18:00:19.380Z,101970.28
2023-06-24T18:05:25.140Z,101964.75
2023-06-24T18:10:29.476Z,101958.81
2023-06-24T18:15:33.551Z,101960.84
2023-06-24T18:20:39.186Z,101960.63
2023-06-24T18:25:43.247Z,101964.56
2023-06-24T18:30:47.306Z,101946.50
2023-06-24T18:35:52.785Z,101952.22
2023-06-24T18:40:56.871Z,101956.31
2023-06-24T18:46:00.948Z,101957.38
2023-06-24T18:51:06.405Z,101960.81
2023-06-24T18:56:10.490Z,101953.25
2023-06-24T19:01:14.486Z,101946.06
2023-06-24T19:06:19.986Z,101941.59
2023-06-24T19:11:24.683Z,101946.69
2023-06-24T19:16:28.728Z,101939.75
2023-06-24T19:21:34.273Z,101939.94
2023-06-24T19:26:38.316Z,101939.50
2023-06-24T19:31:42.455Z,101944.03
2023-06-24T19:36:48.022Z,101947.66
2023-06-24T19:41:52.139Z,101943.16
2023-06-24T19:46:56.263Z,101948.25
2023-06-24T19:52:01.780Z,101946.38
2023-06-24T19:57:06.321Z,101947.19
2023-06-24T20:02:10.688Z,101945.16
2023-06-24T20:07:17.464Z,101949.03
2023-06-24T20:12:21.991Z,101943.72
2023-06-24T20:17:26.101Z,101941.84
2023-06-24T20:22:31.608Z,101945.53
2023-06-24T20:27:35.613Z,101946.50
2023-06-24T20:32:39.639Z,101951.41
2023-06-24T20:37:45.314Z,101951.03
2023-06-24T20:42:49.371Z,101957.66
2023-06-24T20:47:53.462Z,101955.81
2023-06-24T20:52:58.904Z,101964.38
2023-06-24T20:58:02.936Z,101953.75
2023-06-24T21:03:08.395Z,101958.22
2023-06-24T21:08:13.949Z,101952.25
2023-06-24T21:13:18.054Z,101952.41
2023-06-24T21:18:22.596Z,101953.38
2023-06-24T21:23:28.251Z,101951.88
2023-06-24T21:28:32.359Z,101945.31
2023-06-24T21:33:37.671Z,101941.44
2023-06-24T21:38:43.054Z,101937.50
2023-06-24T21:43:47.067Z,101939.50
2023-06-24T21:48:51.164Z,101935.19
2023-06-24T21:53:56.628Z,101931.03
2023-06-24T21:59:00.676Z,101922.84
2023-06-24T22:04:04.818Z,101929.13
2023-06-24T22:09:10.367Z,101932.31
2023-06-24T22:14:14.445Z,101929.88
2023-06-24T22:19:21.188Z,101938.59
2023-06-24T22:24:26.602Z,101943.47
2023-06-24T22:29:30.685Z,101933.44
2023-06-24T22:34:34.806Z,101923.38
2023-06-24T22:39:40.184Z,101926.41
2023-06-24T22:44:44.304Z,101930.44
2023-06-24T22:49:48.382Z,101923.06
2023-06-24T22:54:53.885Z,101928.94
2023-06-24T22:59:58.016Z,101921.78
2023-06-24T23:05:03.014Z,101916.22
2023-06-24T23:10:10.698Z,101923.97
2023-06-24T23:15:15.841Z,101918.59
2023-06-24T23:20:20.667Z,101908.53
2023-06-24T23:25:30.145Z,101902.34
2023-06-24T23:30:37.409Z,101895.34
2023-06-24T23:35:42.521Z,101894.16
2023-06-24T23:40:49.179Z,101895.28
2023-06-24T23:45:53.517Z,101885.50
2023-06-24T23:50:57.954Z,101879.66
2023-06-24T23:56:03.292Z,101872.34
